Time;durP1;ratioP1;P1;durP2;ratioP2;P2;SDS_P1;SDS_P2;PMS_P1;PMS_P2;Temp;Humidity;BMP_temperature;BMP_pressure;BME280_temperature;BME280_humidity;BME280_pressure;Samples;Min_cycle;Max_cycle;Signal;HPM_P1;HPM_P2
2022/12/06 00:08:59;;;;;;;122.20;39.50;;;;;;;3.57;100.00;100551.45;660869;1312;138917;-79
2022/12/06 00:24:14;;;;;;;106.30;37.20;;;;;;;3.58;100.00;100545.87;660983;1308;138889;-79
2022/12/06 00:39:18;;;;;;;117.20;37.40;;;;;;;3.65;100.00;100536.44;660700;1303;138440;-79
2022/12/06 00:54:21;;;;;;;112.10;35.70;;;;;;;3.70;100.00;100538.30;660752;1304;138447;-79
2022/12/06 01:09:24;;;;;;;114.70;39.70;;;;;;;3.83;100.00;100517.81;660920;1313;138884;-79
2022/12/06 01:24:27;;;;;;;107.00;37.90;;;;;;;3.87;100.00;100509.98;661017;1312;139142;-79
2022/12/06 01:39:31;;;;;;;99.70;37.10;;;;;;;3.96;100.00;100494.77;660718;1313;139093;-79
2022/12/06 01:54:35;;;;;;;97.10;34.90;;;;;;;3.96;100.00;100482.98;660614;1311;138231;-79
2022/12/06 02:09:39;;;;;;;103.90;40.70;;;;;;;3.99;100.00;100464.48;660702;1308;138207;-79
2022/12/06 02:24:57;;;;;;;105.70;38.40;;;;;;;4.03;100.00;100448.34;660662;1312;138801;-79
2022/12/06 02:40:12;;;;;;;110.60;38.50;;;;;;;4.06;100.00;100439.15;660654;1312;139213;-79
2022/12/06 02:55:17;;;;;;;106.80;36.90;;;;;;;4.04;100.00;100428.05;660569;1313;138961;-79
2022/12/06 03:10:31;;;;;;;101.90;35.50;;;;;;;3.96;100.00;100424.36;660802;1298;138924;-79
2022/12/06 03:25:36;;;;;;;109.10;37.90;;;;;;;3.96;100.00;100413.46;660865;1297;138919;-79
2022/12/06 03:40:46;;;;;;;94.80;35.10;;;;;;;4.01;100.00;100402.21;660733;1311;138898;-79
2022/12/06 03:55:49;;;;;;;99.70;39.80;;;;;;;4.09;100.00;100388.62;660629;1312;139121;-79
2022/12/06 04:10:52;;;;;;;90.70;35.40;;;;;;;4.09;100.00;100373.92;660628;1310;138823;-79
2022/12/06 04:25:55;;;;;;;89.90;35.20;;;;;;;4.12;100.00;100364.91;660625;1312;139239;-79
2022/12/06 04:40:59;;;;;;;85.80;35.50;;;;;;;4.25;100.00;100350.64;660800;1309;138990;-79
2022/12/06 04:56:02;;;;;;;97.50;39.40;;;;;;;4.24;100.00;100339.25;660584;1305;139546;-79
2022/12/06 05:11:06;;;;;;;85.00;33.50;;;;;;;4.28;100.00;100322.21;660696;1310;138774;-79
2022/12/06 05:26:17;;;;;;;95.90;40.70;;;;;;;4.30;100.00;100311.01;660411;1312;139176;-80
2022/12/06 05:41:21;;;;;;;291.60;133.30;;;;;;;4.21;100.00;100307.44;660442;1298;138368;-79
2022/12/06 05:56:25;;;;;;;141.90;57.80;;;;;;;4.24;100.00;100303.10;660289;1312;139473;-79
2022/12/06 06:11:28;;;;;;;133.60;52.90;;;;;;;4.30;100.00;100305.51;660718;1311;141905;-80
2022/12/06 06:26:31;;;;;;;114.00;48.10;;;;;;;4.35;100.00;100308.48;660435;1310;138474;-80
2022/12/06 06:41:35;;;;;;;115.30;42.20;;;;;;;4.28;100.00;100307.16;660885;1310;138931;-80
2022/12/06 06:56:38;;;;;;;129.40;52.60;;;;;;;4.45;100.00;100295.57;660605;1312;138961;-79
2022/12/06 07:11:41;;;;;;;112.00;41.30;;;;;;;4.34;100.00;100294.19;660811;1305;138361;-79
2022/12/06 07:26:45;;;;;;;95.60;38.00;;;;;;;4.53;100.00;100303.54;660700;1312;138773;-79
2022/12/06 07:57:15;;;;;;;160.20;56.90;;;;;;;4.58;100.00;100294.89;660787;1307;139176;-79
2022/12/06 08:12:21;;;;;;;140.60;51.30;;;;;;;4.61;100.00;100283.98;660568;1297;138282;-79
2022/12/06 08:27:24;;;;;;;169.10;61.50;;;;;;;4.77;100.00;100276.58;660250;1307;138819;-80
2022/12/06 08:42:28;;;;;;;276.40;99.40;;;;;;;5.36;100.00;100276.56;660842;1297;139818;-79
2022/12/06 08:57:32;;;;;;;126.30;54.90;;;;;;;5.27;100.00;100273.39;659987;1313;139067;-79
2022/12/06 09:12:35;;;;;;;193.90;67.20;;;;;;;5.15;100.00;100272.59;660570;1305;138984;-79
2022/12/06 09:27:38;;;;;;;230.10;77.60;;;;;;;5.04;100.00;100267.25;660490;1312;138288;-80
2022/12/06 09:42:57;;;;;;;273.30;90.30;;;;;;;5.05;100.00;100243.26;660339;1297;138684;-80
2022/12/06 09:58:18;;;;;;;462.80;162.60;;;;;;;5.13;100.00;100224.68;660735;1305;140113;-80
2022/12/06 10:13:31;;;;;;;170.90;75.00;;;;;;;5.15;100.00;100217.46;660857;1312;139251;-80
2022/12/06 10:28:56;;;;;;;142.90;58.20;;;;;;;4.84;100.00;100208.00;660897;1291;138940;-80
2022/12/06 10:44:14;;;;;;;161.50;66.10;;;;;;;4.76;100.00;100187.92;660056;1312;139185;-80
2022/12/06 10:59:59;;;;;;;212.60;77.00;;;;;;;4.85;100.00;100164.83;660285;1299;138981;-80
2022/12/06 11:15:20;;;;;;;194.30;66.10;;;;;;;4.89;100.00;100147.74;660548;1312;138800;-79
2022/12/06 11:30:23;;;;;;;125.30;50.30;;;;;;;5.02;100.00;100137.36;660572;1312;138383;-79
2022/12/06 11:45:36;;;;;;;198.00;79.90;;;;;;;5.10;100.00;100124.33;660715;1305;139233;-80
2022/12/06 12:01:05;;;;;;;292.30;143.80;;;;;;;5.17;100.00;100116.03;660625;1312;138928;-79
2022/12/06 12:16:30;;;;;;;400.50;122.90;;;;;;;5.31;100.00;100099.02;660965;1305;139499;-80
2022/12/06 12:32:05;;;;;;;277.50;99.10;;;;;;;5.34;100.00;100090.61;660402;1313;139606;-79
2022/12/06 12:47:19;;;;;;;297.90;121.30;;;;;;;5.20;100.00;100079.13;661884;1300;138585;-79
2022/12/06 13:02:35;;;;;;;195.40;86.50;;;;;;;5.23;100.00;100061.92;661570;1306;139446;-81
2022/12/06 13:17:42;;;;;;;189.00;75.80;;;;;;;5.24;100.00;100052.98;660280;1312;139378;-78
2022/12/06 13:32:52;;;;;;;247.00;84.10;;;;;;;5.23;100.00;100051.35;660456;1312;139491;-81
2022/12/06 13:47:55;;;;;;;216.40;91.10;;;;;;;5.09;100.00;100049.66;660758;1312;138991;-80
2022/12/06 14:03:17;;;;;;;231.40;96.80;;;;;;;5.03;100.00;100028.61;660328;1302;139481;-80
2022/12/06 14:18:24;;;;;;;220.90;88.90;;;;;;;5.21;100.00;100026.86;660484;1304;139464;-80
2022/12/06 14:33:28;;;;;;;210.20;79.00;;;;;;;5.08;100.00;100020.31;660245;1308;138787;-80
2022/12/06 15:04:04;;;;;;;243.70;93.40;;;;;;;5.05;100.00;100005.05;660422;1312;138968;-80
2022/12/06 15:19:16;;;;;;;397.70;126.80;;;;;;;5.04;100.00;99998.20;660174;1312;139358;-81
2022/12/06 15:34:21;;;;;;;196.20;76.80;;;;;;;5.17;100.00;99985.70;660433;1313;139411;-81
2022/12/06 15:49:25;;;;;;;341.30;127.00;;;;;;;5.30;100.00;99966.02;660504;1312;138863;-81
2022/12/06 16:04:33;;;;;;;212.00;74.00;;;;;;;5.16;100.00;99956.64;661014;1311;139050;-80
2022/12/06 16:34:59;;;;;;;275.50;110.20;;;;;;;5.04;100.00;99948.27;660883;1310;138771;-79
2022/12/06 16:50:04;;;;;;;179.40;71.80;;;;;;;5.20;100.00;99938.29;660881;1311;139467;-80
2022/12/06 17:05:22;;;;;;;245.30;98.30;;;;;;;5.40;100.00;99921.16;660693;1306;139013;-80
2022/12/06 17:20:26;;;;;;;248.50;98.20;;;;;;;5.33;100.00;99909.30;660515;1311;139120;-80
2022/12/06 17:35:30;;;;;;;162.00;89.20;;;;;;;5.13;100.00;99906.75;660803;1310;138474;-81
2022/12/06 17:50:35;;;;;;;151.80;67.40;;;;;;;4.94;100.00;99912.44;660693;1312;137949;-81
2022/12/06 18:05:40;;;;;;;167.40;72.50;;;;;;;5.15;100.00;99903.84;660355;1308;139431;-81
2022/12/06 18:20:43;;;;;;;182.80;76.20;;;;;;;5.23;100.00;99896.63;660416;1311;139828;-81
2022/12/06 18:35:50;;;;;;;217.30;92.70;;;;;;;5.27;100.00;99896.77;660541;1304;138745;-81
2022/12/06 18:50:54;;;;;;;208.30;78.30;;;;;;;5.09;100.00;99884.63;660895;1312;138755;-79
2022/12/06 19:06:05;;;;;;;95.50;47.00;;;;;;;5.10;100.00;99879.73;660299;1300;138095;-81
2022/12/06 19:21:09;;;;;;;99.80;51.40;;;;;;;5.01;100.00;99870.99;660345;1311;138348;-82
2022/12/06 19:36:27;;;;;;;132.70;54.00;;;;;;;5.10;100.00;99863.09;660416;1310;138856;-79
2022/12/06 19:51:34;;;;;;;144.40;63.50;;;;;;;5.06;100.00;99842.02;660367;1312;138742;-80
2022/12/06 20:06:38;;;;;;;127.50;47.90;;;;;;;4.92;100.00;99832.66;660414;1312;138139;-82
2022/12/06 20:21:42;;;;;;;102.60;46.60;;;;;;;4.80;100.00;99824.52;659988;1313;138377;-79
2022/12/06 20:36:46;;;;;;;134.40;56.20;;;;;;;4.88;100.00;99813.20;660301;1312;138825;-83
2022/12/06 20:51:50;;;;;;;242.80;99.30;;;;;;;5.01;100.00;99794.05;660209;1300;138858;-80
2022/12/06 21:06:56;;;;;;;86.90;39.30;;;;;;;5.06;100.00;99779.51;660291;1305;138773;-79
2022/12/06 21:22:00;;;;;;;165.60;67.40;;;;;;;5.20;100.00;99777.77;660413;1308;138303;-79
2022/12/06 21:37:04;;;;;;;101.80;42.20;;;;;;;5.24;100.00;99770.53;660418;1313;138979;-79
2022/12/06 21:52:07;;;;;;;121.50;49.70;;;;;;;5.26;100.00;99766.09;660336;1303;139129;-80
2022/12/06 22:07:11;;;;;;;130.30;50.10;;;;;;;5.29;100.00;99750.44;660407;1313;138468;-80
2022/12/06 22:22:15;;;;;;;94.40;37.60;;;;;;;5.24;100.00;99732.23;660274;1312;138080;-79
2022/12/06 22:37:18;;;;;;;69.30;26.70;;;;;;;5.23;100.00;99715.46;660634;1312;138624;-79
2022/12/06 22:52:27;;;;;;;60.90;25.20;;;;;;;5.47;100.00;99704.33;660760;1307;139003;-80
2022/12/06 23:07:30;;;;;;;62.10;26.90;;;;;;;5.31;100.00;99692.38;660588;1312;137889;-79
2022/12/06 23:22:34;;;;;;;52.30;24.20;;;;;;;5.15;100.00;99679.11;660773;1312;138115;-80
2022/12/06 23:37:37;;;;;;;52.20;22.10;;;;;;;5.07;100.00;99669.86;660689;1312;138828;-80
2022/12/06 23:52:41;;;;;;;130.40;59.40;;;;;;;5.06;100.00;99665.63;660921;1312;138420;-80
